createdAt,value
2022-08-22T00:01:29.213Z,50.92
2022-08-22T00:02:45.054Z,44.97
2022-08-22T00:02:45.628Z,46.98
2022-08-22T00:02:54.797Z,50.81
2022-08-22T00:02:58.169Z,50.21
2022-08-22T00:03:04.188Z,49.64
2022-08-22T00:04:04.181Z,50.28
2022-08-22T00:06:53.847Z,50.56
2022-08-22T00:09:33.495Z,50.68
2022-08-22T00:12:23.694Z,50.33
2022-08-22T00:14:56.883Z,50.79
2022-08-22T00:17:38.731Z,50.75
2022-08-22T00:20:13.419Z,50.71
2022-08-22T00:22:49.503Z,50.35
2022-08-22T00:25:35.848Z,50.55
2022-08-22T00:28:06.508Z,50.66
2022-08-22T00:30:38.195Z,50.33
2022-08-22T00:33:10.868Z,50.49
2022-08-22T00:35:45.456Z,50.55
2022-08-22T00:38:26.456Z,50.58
2022-08-22T00:41:01.683Z,50.64
2022-08-22T00:43:31.362Z,50.74
2022-08-22T00:46:02.745Z,50.75
2022-08-22T00:48:33.160Z,50.26
2022-08-22T00:51:32.510Z,50.43
2022-08-22T00:54:06.887Z,50.55
2022-08-22T00:56:52.530Z,50.74
2022-08-22T00:59:25.485Z,50.40
2022-08-22T01:01:53.871Z,50.27
2022-08-22T01:04:26.982Z,50.27
2022-08-22T01:07:03.815Z,50.50
2022-08-22T01:09:31.497Z,50.33
2022-08-22T01:11:59.051Z,50.17
2022-08-22T01:14:35.395Z,50.59
2022-08-22T01:17:14.701Z,50.42
2022-08-22T01:20:10.894Z,50.50
2022-08-22T01:22:40.929Z,50.71
2022-08-22T01:25:26.409Z,50.58
2022-08-22T01:28:13.874Z,50.54
2022-08-22T01:30:47.321Z,50.70
2022-08-22T01:33:29.675Z,50.67
2022-08-22T01:36:02.641Z,50.69
2022-08-22T01:38:45.417Z,50.83
2022-08-22T01:41:21.470Z,50.42
2022-08-22T01:44:00.358Z,50.59
2022-08-22T01:46:46.458Z,50.64
2022-08-22T01:49:36.876Z,50.69
2022-08-22T01:52:11.554Z,50.87
2022-08-22T01:54:50.584Z,50.64
2022-08-22T01:57:19.490Z,50.46
2022-08-22T02:00:10.708Z,50.55
2022-08-22T02:02:56.026Z,50.56
2022-08-22T02:05:31.996Z,50.63
2022-08-22T02:07:59.243Z,50.67
2022-08-22T02:10:44.879Z,50.93
2022-08-22T02:13:26.596Z,50.84
2022-08-22T02:16:07.546Z,50.66
2022-08-22T02:18:45.269Z,51.02
2022-08-22T02:21:18.285Z,51.08
2022-08-22T02:23:55.467Z,50.65
2022-08-22T02:26:26.246Z,51.23
2022-08-22T02:28:59.320Z,50.88
2022-08-22T02:31:34.419Z,50.69
2022-08-22T02:34:03.739Z,51.11
2022-08-22T02:36:33.731Z,51.03
2022-08-22T02:39:03.677Z,50.50
2022-08-22T02:41:33.300Z,51.07
2022-08-22T02:44:03.507Z,50.75
2022-08-22T02:46:40.344Z,50.70
2022-08-22T02:49:07.017Z,50.34
2022-08-22T02:51:54.019Z,51.04
2022-08-22T02:57:05.977Z,50.85
2022-08-22T02:59:40.243Z,50.58
2022-08-22T03:02:44.686Z,50.77
2022-08-22T03:05:26.529Z,50.71
2022-08-22T03:08:03.647Z,50.81
2022-08-22T03:12:58.742Z,51.10
2022-08-22T03:15:40.450Z,50.67
2022-08-22T03:18:33.924Z,50.69
2022-08-22T03:21:20.833Z,50.91
2022-08-22T03:23:53.114Z,50.88
2022-08-22T03:26:26.089Z,50.75
2022-08-22T03:29:05.557Z,51.06
2022-08-22T03:31:32.719Z,51.29
2022-08-22T03:34:16.434Z,51.60
2022-08-22T03:36:48.821Z,51.21
2022-08-22T03:39:25.272Z,50.80
2022-08-22T03:42:00.958Z,50.92
2022-08-22T03:44:27.653Z,51.58
2022-08-22T03:47:13.108Z,51.35
2022-08-22T03:49:50.954Z,51.28
2022-08-22T03:52:17.831Z,51.54
2022-08-22T03:54:57.844Z,51.29
2022-08-22T03:57:36.669Z,51.13
2022-08-22T04:00:03.433Z,51.23
2022-08-22T04:02:48.595Z,51.42
2022-08-22T04:05:21.208Z,51.44
2022-08-22T04:08:06.973Z,51.66
2022-08-22T04:10:51.940Z,51.54
2022-08-22T04:13:27.941Z,51.58
2022-08-22T04:15:54.741Z,51.43
2022-08-22T04:18:35.523Z,51.55
2022-08-22T04:21:08.547Z,51.59
2022-08-22T04:23:35.319Z,51.56
2022-08-22T04:26:44.717Z,51.46
2022-08-22T04:29:18.689Z,51.60
2022-08-22T04:31:55.073Z,51.54
2022-08-22T04:34:26.192Z,51.43
2022-08-22T04:36:58.643Z,51.34
2022-08-22T04:39:30.689Z,51.58
2022-08-22T04:42:31.313Z,51.77
2022-08-22T04:45:02.554Z,51.47
2022-08-22T04:47:36.662Z,51.71
2022-08-22T04:50:22.119Z,51.63
2022-08-22T04:52:49.082Z,51.74
2022-08-22T04:55:31.134Z,51.88
2022-08-22T04:58:06.482Z,51.94
2022-08-22T05:01:06.204Z,51.64
2022-08-22T05:03:36.782Z,52.00
2022-08-22T05:06:05.588Z,51.51
2022-08-22T05:08:34.690Z,52.09
2022-08-22T05:11:03.337Z,52.09
2022-08-22T05:13:43.097Z,52.06
2022-08-22T05:16:14.864Z,51.68
2022-08-22T05:19:00.733Z,51.78
2022-08-22T05:21:31.361Z,51.92
2022-08-22T05:24:04.230Z,51.88
2022-08-22T05:26:35.804Z,51.68
2022-08-22T05:29:04.071Z,52.08
2022-08-22T05:31:33.694Z,51.76
2022-08-22T05:34:08.724Z,52.20
2022-08-22T05:36:39.371Z,51.60
2022-08-22T05:39:10.269Z,52.16
2022-08-22T05:41:38.418Z,52.05
2022-08-22T05:44:07.477Z,52.20
2022-08-22T05:46:36.931Z,52.23
2022-08-22T05:49:05.097Z,51.80
2022-08-22T05:51:39.431Z,52.27
2022-08-22T05:54:12.437Z,51.90
2022-08-22T05:56:42.303Z,52.01
2022-08-22T05:59:12.016Z,51.78
2022-08-22T06:01:52.249Z,52.01
2022-08-22T06:04:30.420Z,52.00
2022-08-22T06:07:03.302Z,51.88
2022-08-22T06:09:35.631Z,52.13
2022-08-22T06:12:05.539Z,52.39
2022-08-22T06:14:47.570Z,52.51
2022-08-22T06:17:20.680Z,52.50
2022-08-22T06:19:49.773Z,52.36
2022-08-22T06:22:21.578Z,52.56
2022-08-22T06:24:50.224Z,52.35
2022-08-22T06:27:19.387Z,52.55
2022-08-22T06:29:51.498Z,52.14
2022-08-22T06:32:44.451Z,52.33
2022-08-22T06:35:29.511Z,52.50
2022-08-22T06:37:59.896Z,52.42
2022-08-22T06:40:28.409Z,52.36
2022-08-22T06:42:56.191Z,52.54
2022-08-22T06:45:26.774Z,52.50
2022-08-22T06:48:00.922Z,51.98
2022-08-22T06:50:33.458Z,52.12
2022-08-22T06:53:07.981Z,51.85
2022-08-22T06:55:36.189Z,52.31
2022-08-22T06:58:05.312Z,52.26
2022-08-22T07:00:33.925Z,52.43
2022-08-22T07:03:06.431Z,52.44
2022-08-22T07:05:37.911Z,52.50
2022-08-22T07:08:09.133Z,51.96
2022-08-22T07:10:45.003Z,52.05
2022-08-22T07:13:19.486Z,52.35
2022-08-22T07:15:53.850Z,52.27
2022-08-22T07:18:25.202Z,52.39
2022-08-22T07:20:55.217Z,52.51
2022-08-22T07:23:37.061Z,52.07
2022-08-22T07:26:22.527Z,52.06
2022-08-22T07:28:58.479Z,52.62
2022-08-22T07:31:25.437Z,52.63
2022-08-22T07:33:54.351Z,52.14
2022-08-22T07:36:23.385Z,51.92
2022-08-22T07:39:02.385Z,52.54
2022-08-22T07:41:36.916Z,51.87
2022-08-22T07:44:06.336Z,52.36
2022-08-22T07:46:37.695Z,52.39
2022-08-22T07:49:09.547Z,52.36
2022-08-22T07:51:45.215Z,52.19
2022-08-22T07:54:14.680Z,51.56
2022-08-22T07:57:01.712Z,51.46
2022-08-22T07:59:30.445Z,51.85
2022-08-22T08:01:58.837Z,51.87
2022-08-22T08:04:29.195Z,51.29
2022-08-22T08:06:59.324Z,51.18
2022-08-22T08:09:28.815Z,50.94
2022-08-22T08:11:55.861Z,51.25
2022-08-22T08:14:24.402Z,50.90
2022-08-22T08:16:55.392Z,50.56
2022-08-22T08:19:22.963Z,51.15
2022-08-22T08:21:51.475Z,50.69
2022-08-22T08:24:21.037Z,50.97
2022-08-22T08:27:10.910Z,50.77
2022-08-22T08:29:37.680Z,50.92
2022-08-22T08:32:05.659Z,50.98
2022-08-22T08:34:35.505Z,50.66
2022-08-22T08:37:12.769Z,51.33
2022-08-22T08:39:43.946Z,51.17
2022-08-22T08:42:29.507Z,50.96
2022-08-22T08:45:14.838Z,51.32
2022-08-22T08:47:44.597Z,50.90
2022-08-22T08:50:14.548Z,51.16
2022-08-22T08:53:02.076Z,50.90
2022-08-22T08:55:31.771Z,50.82
2022-08-22T08:58:05.094Z,51.17
2022-08-22T09:00:48.884Z,51.47
2022-08-22T09:03:35.984Z,51.16
2022-08-22T09:06:29.259Z,51.24
2022-08-22T09:09:14.476Z,51.31
2022-08-22T09:12:00.758Z,51.22
2022-08-22T09:14:36.440Z,51.21
2022-08-22T09:17:03.112Z,51.34
2022-08-22T09:19:42.346Z,51.00
2022-08-22T09:22:14.584Z,50.79
2022-08-22T09:25:00.163Z,50.93
2022-08-22T09:27:35.214Z,50.75
2022-08-22T09:30:11.832Z,50.82
2022-08-22T09:32:38.555Z,50.92
2022-08-22T09:35:13.245Z,51.02
2022-08-22T09:37:49.478Z,50.39
2022-08-22T09:42:59.140Z,50.02
2022-08-22T09:45:26.022Z,49.83
2022-08-22T09:48:07.221Z,49.89
2022-08-22T09:50:34.418Z,49.33
2022-08-22T09:53:15.492Z,49.00
2022-08-22T09:55:50.532Z,49.35
2022-08-22T09:58:41.506Z,49.25
2022-08-22T10:01:23.775Z,48.88
2022-08-22T10:04:09.033Z,48.88
2022-08-22T10:06:58.291Z,48.79
2022-08-22T10:09:34.613Z,48.18
2022-08-22T10:12:12.425Z,48.88
2022-08-22T10:14:40.794Z,49.11
2022-08-22T10:17:30.708Z,49.07
2022-08-22T10:20:04.791Z,49.10
2022-08-22T10:22:34.180Z,49.23
2022-08-22T10:25:19.471Z,49.29
2022-08-22T10:27:48.820Z,49.29
2022-08-22T10:30:16.286Z,50.11
2022-08-22T10:32:46.154Z,50.02
2022-08-22T10:35:33.720Z,50.07
2022-08-22T10:38:00.876Z,50.28
2022-08-22T10:40:47.707Z,50.46
2022-08-22T10:43:28.848Z,50.67
2022-08-22T10:46:12.367Z,50.96
2022-08-22T10:48:52.277Z,51.33
2022-08-22T10:51:18.896Z,50.86
2022-08-22T10:54:05.980Z,51.03
2022-08-22T10:56:39.061Z,51.15
2022-08-22T10:59:19.634Z,51.30
2022-08-22T11:02:08.194Z,50.99
2022-08-22T11:04:53.293Z,50.88
2022-08-22T11:07:29.154Z,51.21
2022-08-22T11:10:00.107Z,51.53
2022-08-22T11:12:34.891Z,51.75
2022-08-22T11:15:13.128Z,51.46
2022-08-22T11:17:59.050Z,51.67
2022-08-22T11:20:28.813Z,52.09
2022-08-22T11:23:12.352Z,51.91
2022-08-22T11:26:05.244Z,51.66
2022-08-22T11:28:35.122Z,52.29
2022-08-22T11:31:07.644Z,51.62
2022-08-22T11:33:47.349Z,51.64
2022-08-22T11:36:27.282Z,52.13
2022-08-22T11:38:57.451Z,52.52
2022-08-22T11:41:27.442Z,52.21
2022-08-22T11:44:00.079Z,52.46
2022-08-22T11:46:41.179Z,52.81
2022-08-22T11:49:31.742Z,52.19
2022-08-22T11:54:42.100Z,52.25
2022-08-22T11:57:13.991Z,52.38
2022-08-22T11:59:43.483Z,52.35
2022-08-22T12:02:24.796Z,52.15
2022-08-22T12:05:03.791Z,52.82
2022-08-22T12:07:37.207Z,52.60
2022-08-22T12:10:28.446Z,52.72
2022-08-22T12:13:03.778Z,52.11
2022-08-22T12:15:39.311Z,52.87
2022-08-22T12:18:10.407Z,52.20
2022-08-22T12:20:55.764Z,52.99
2022-08-22T12:23:49.240Z,53.06
2022-08-22T12:26:18.960Z,52.59
2022-08-22T12:28:54.733Z,52.85
2022-08-22T12:31:41.659Z,53.29
2022-08-22T12:34:11.183Z,52.89
2022-08-22T12:37:00.821Z,52.89
2022-08-22T12:39:44.463Z,52.69
2022-08-22T12:42:30.664Z,53.34
2022-08-22T12:45:00.074Z,53.31
2022-08-22T12:47:45.497Z,53.83
2022-08-22T12:50:19.656Z,53.47
2022-08-22T12:53:10.944Z,53.40
2022-08-22T12:55:39.181Z,53.83
2022-08-22T12:58:23.062Z,53.33
2022-08-22T13:00:52.876Z,53.04
2022-08-22T13:03:29.670Z,53.58
2022-08-22T13:06:00.508Z,53.37
2022-08-22T13:08:27.432Z,53.41
2022-08-22T13:11:14.642Z,53.85
2022-08-22T13:13:56.392Z,53.68
2022-08-22T13:16:24.873Z,53.31
2022-08-22T13:18:54.885Z,52.91
2022-08-22T13:21:23.589Z,53.79
2022-08-22T13:23:53.457Z,53.43
2022-08-22T13:26:33.601Z,54.01
2022-08-22T13:32:04.047Z,53.55
2022-08-22T13:34:38.498Z,53.21
2022-08-22T13:37:07.921Z,54.13
2022-08-22T13:39:39.105Z,53.62
2022-08-22T13:42:07.640Z,53.59
2022-08-22T13:44:44.237Z,54.77
2022-08-22T13:47:14.947Z,53.87
2022-08-22T13:49:53.247Z,53.99
2022-08-22T13:52:29.275Z,54.66
2022-08-22T13:54:57.022Z,54.60
2022-08-22T13:57:44.315Z,55.36
2022-08-22T14:00:14.231Z,55.00
2022-08-22T14:03:07.937Z,54.81
2022-08-22T14:05:40.389Z,55.07
2022-08-22T14:08:12.858Z,55.42
2022-08-22T14:10:55.077Z,55.30
2022-08-22T14:13:27.032Z,54.90
2022-08-22T14:16:01.560Z,55.25
2022-08-22T14:18:36.542Z,55.65
2022-08-22T14:21:40.313Z,56.08
2022-08-22T14:24:46.661Z,56.44
2022-08-22T14:27:30.863Z,56.36
2022-08-22T14:29:59.299Z,55.73
2022-08-22T14:32:29.686Z,56.70
2022-08-22T14:35:02.934Z,55.74
2022-08-22T14:37:33.798Z,55.82
2022-08-22T14:40:03.752Z,56.25
2022-08-22T14:42:38.939Z,55.75
2022-08-22T14:45:22.682Z,55.69
2022-08-22T14:48:13.950Z,55.85
2022-08-22T14:50:47.513Z,55.39
2022-08-22T14:53:22.190Z,56.04
2022-08-22T14:56:08.108Z,55.63
2022-08-22T14:58:52.134Z,55.28
2022-08-22T15:01:21.666Z,55.72
2022-08-22T15:04:09.005Z,56.04
2022-08-22T15:06:47.766Z,55.72
2022-08-22T15:09:34.623Z,55.58
2022-08-22T15:12:03.822Z,56.04
2022-08-22T15:14:44.825Z,55.95
2022-08-22T15:17:33.302Z,56.18
2022-08-22T15:20:12.200Z,55.75
2022-08-22T15:22:40.101Z,55.87
2022-08-22T15:25:21.201Z,57.25
2022-08-22T15:27:56.604Z,56.91
2022-08-22T15:30:46.900Z,56.40
2022-08-22T15:33:39.211Z,57.04
2022-08-22T15:36:09.832Z,56.50
2022-08-22T15:38:38.309Z,55.92
2022-08-22T15:41:24.046Z,56.26
2022-08-22T15:43:52.403Z,56.38
2022-08-22T15:46:26.112Z,55.68
2022-08-22T15:48:55.696Z,56.24
2022-08-22T15:51:41.074Z,55.97
2022-08-22T15:54:16.223Z,55.72
2022-08-22T15:56:52.180Z,56.04
2022-08-22T15:59:48.186Z,55.63
2022-08-22T16:02:30.156Z,56.50
2022-08-22T16:05:08.867Z,55.96
2022-08-22T16:07:39.392Z,55.89
2022-08-22T16:10:09.010Z,55.91
2022-08-22T16:12:41.366Z,56.23
2022-08-22T16:15:27.948Z,55.69
2022-08-22T16:17:57.554Z,55.94
2022-08-22T16:20:24.609Z,55.37
2022-08-22T16:22:57.360Z,55.40
2022-08-22T16:25:44.199Z,56.36
2022-08-22T16:28:28.237Z,55.90
2022-08-22T16:31:35.524Z,56.10
2022-08-22T16:34:17.286Z,56.02
2022-08-22T16:36:49.691Z,56.24
2022-08-22T16:39:22.207Z,55.55
2022-08-22T16:41:50.559Z,56.03
2022-08-22T16:44:29.073Z,55.84
2022-08-22T16:47:07.898Z,56.05
2022-08-22T16:49:36.841Z,55.77
2022-08-22T16:52:21.765Z,55.87
2022-08-22T16:54:49.914Z,55.91
2022-08-22T16:57:24.865Z,57.05
2022-08-22T17:00:01.255Z,55.82
2022-08-22T17:02:47.064Z,57.23
2022-08-22T17:05:21.985Z,57.11
2022-08-22T17:07:56.670Z,57.86
2022-08-22T17:10:23.603Z,56.86
2022-08-22T17:12:52.974Z,57.29
2022-08-22T17:15:38.100Z,56.74
2022-08-22T17:18:22.884Z,56.79
2022-08-22T17:20:59.367Z,56.71
2022-08-22T17:23:39.942Z,57.39
2022-08-22T17:26:42.224Z,56.33
2022-08-22T17:29:15.193Z,56.49
2022-08-22T17:31:44.574Z,57.22
2022-08-22T17:34:29.443Z,57.06
2022-08-22T17:37:16.049Z,56.14
2022-08-22T17:40:01.262Z,56.85
2022-08-22T17:42:54.525Z,57.66
2022-08-22T17:45:38.828Z,57.55
2022-08-22T17:48:14.642Z,57.77
2022-08-22T17:50:55.038Z,57.95
2022-08-22T17:53:28.223Z,58.31
2022-08-22T17:55:55.344Z,58.63
2022-08-22T17:58:35.681Z,59.23
2022-08-22T18:01:13.836Z,58.72
2022-08-22T18:03:43.751Z,58.33
2022-08-22T18:06:30.130Z,57.67
2022-08-22T18:09:15.429Z,57.99
2022-08-22T18:11:49.696Z,57.64
2022-08-22T18:14:27.907Z,58.00
2022-08-22T18:16:55.816Z,57.86
2022-08-22T18:19:34.549Z,57.61
2022-08-22T18:22:07.997Z,57.49
2022-08-22T18:24:46.403Z,57.70
2022-08-22T18:27:29.983Z,57.54
2022-08-22T18:30:15.858Z,57.84
2022-08-22T18:32:56.398Z,59.47
2022-08-22T18:35:33.754Z,58.13
2022-08-22T18:38:20.561Z,58.38
2022-08-22T18:41:07.154Z,57.98
2022-08-22T18:43:37.023Z,59.63
2022-08-22T18:46:23.855Z,58.22
2022-08-22T18:49:13.970Z,58.08
2022-08-22T18:51:38.891Z,58.46
2022-08-22T18:54:14.199Z,58.01
2022-08-22T18:56:54.343Z,58.68
2022-08-22T18:59:39.960Z,58.52
2022-08-22T19:02:12.787Z,58.07
2022-08-22T19:04:56.054Z,58.72
2022-08-22T19:07:35.829Z,59.45
2022-08-22T19:10:05.769Z,58.40
2022-08-22T19:12:35.950Z,60.51
2022-08-22T19:15:28.153Z,59.84
2022-08-22T19:18:07.288Z,59.37
2022-08-22T19:20:54.294Z,60.13
2022-08-22T19:23:33.239Z,60.71
2022-08-22T19:26:38.338Z,60.39
2022-08-22T19:29:27.998Z,58.58
2022-08-22T19:31:56.389Z,59.65
2022-08-22T19:34:28.396Z,59.73
2022-08-22T19:37:30.307Z,59.10
2022-08-22T19:40:11.474Z,60.80
2022-08-22T19:42:39.972Z,61.05
2022-08-22T19:45:30.857Z,62.37
2022-08-22T19:47:59.998Z,61.04
2022-08-22T19:50:30.889Z,60.49
2022-08-22T19:52:58.318Z,61.26
2022-08-22T19:55:34.457Z,62.05
2022-08-22T19:58:31.744Z,62.16
2022-08-22T20:01:04.763Z,62.61
2022-08-22T20:03:50.075Z,63.46
2022-08-22T20:06:43.156Z,62.01
2022-08-22T20:09:17.719Z,63.31
2022-08-22T20:11:47.710Z,63.08
2022-08-22T20:14:30.008Z,62.31
2022-08-22T20:16:58.571Z,63.46
2022-08-22T20:19:37.258Z,61.33
2022-08-22T20:22:05.944Z,62.06
2022-08-22T20:24:44.788Z,63.61
2022-08-22T20:27:20.003Z,63.72
2022-08-22T20:29:50.403Z,64.04
2022-08-22T20:32:19.395Z,63.56
2022-08-22T20:34:48.170Z,63.98
2022-08-22T20:37:32.420Z,63.57
2022-08-22T20:40:05.638Z,63.10
2022-08-22T20:42:35.824Z,61.54
2022-08-22T20:45:08.529Z,63.16
2022-08-22T20:47:41.286Z,62.73
2022-08-22T20:50:12.314Z,62.97
2022-08-22T20:52:43.055Z,64.09
2022-08-22T20:55:31.392Z,63.86
2022-08-22T20:58:04.555Z,62.50
2022-08-22T21:00:31.958Z,63.22
2022-08-22T21:03:07.692Z,62.94
2022-08-22T21:05:38.421Z,63.24
2022-08-22T21:08:05.267Z,63.82
2022-08-22T21:10:52.529Z,63.17
2022-08-22T21:13:23.891Z,63.47
2022-08-22T21:15:58.791Z,63.43
2022-08-22T21:18:39.596Z,63.49
2022-08-22T21:21:17.363Z,64.20
2022-08-22T21:23:47.842Z,64.50
2022-08-22T21:26:26.627Z,64.98
2022-08-22T21:28:59.005Z,65.15
2022-08-22T21:31:29.140Z,64.75
2022-08-22T21:33:56.732Z,65.69
2022-08-22T21:36:25.423Z,65.33
2022-08-22T21:39:03.670Z,65.48
2022-08-22T21:41:31.088Z,65.83
2022-08-22T21:44:17.505Z,66.18
2022-08-22T21:46:44.564Z,66.20
2022-08-22T21:49:20.595Z,65.22
2022-08-22T21:51:48.425Z,66.04
2022-08-22T21:54:32.046Z,66.69
2022-08-22T21:57:01.319Z,66.34
2022-08-22T21:59:52.164Z,66.49
2022-08-22T22:02:37.499Z,66.12
2022-08-22T22:05:07.736Z,66.40
2022-08-22T22:07:36.332Z,66.62
2022-08-22T22:10:03.278Z,66.71
2022-08-22T22:12:30.289Z,65.88
2022-08-22T22:14:57.307Z,65.84
2022-08-22T22:17:24.122Z,65.84
2022-08-22T22:19:50.979Z,66.09
2022-08-22T22:22:18.147Z,66.43
2022-08-22T22:24:44.988Z,66.07
2022-08-22T22:27:16.769Z,65.95
2022-08-22T22:29:44.226Z,66.48
2022-08-22T22:32:11.176Z,66.50
2022-08-22T22:34:39.434Z,66.78
2022-08-22T22:37:10.388Z,66.66
2022-08-22T22:39:37.423Z,66.60
2022-08-22T22:42:04.542Z,66.44
2022-08-22T22:44:31.452Z,66.69
2022-08-22T22:46:59.171Z,66.78
2022-08-22T22:49:26.135Z,66.34
2022-08-22T22:51:53.048Z,67.19
2022-08-22T22:54:19.977Z,67.12
2022-08-22T22:56:54.515Z,67.00
2022-08-22T22:59:26.770Z,66.38
2022-08-22T23:02:19.567Z,67.23
2022-08-22T23:04:47.737Z,67.10
2022-08-22T23:07:15.530Z,68.68
2022-08-22T23:09:45.136Z,67.70
2022-08-22T23:12:13.629Z,68.24
2022-08-22T23:14:40.560Z,68.53
2022-08-22T23:17:08.231Z,68.63
2022-08-22T23:19:35.368Z,68.44
2022-08-22T23:22:02.269Z,68.50
2022-08-22T23:24:31.463Z,68.99
2022-08-22T23:26:58.816Z,68.80
2022-08-22T23:29:26.147Z,68.30
2022-08-22T23:31:55.441Z,68.28
2022-08-22T23:34:24.185Z,68.85
2022-08-22T23:36:52.668Z,68.93
2022-08-22T23:39:20.290Z,68.78
2022-08-22T23:41:47.725Z,68.47
2022-08-22T23:44:15.495Z,68.39
2022-08-22T23:46:42.954Z,68.98
2022-08-22T23:49:10.305Z,69.12
2022-08-22T23:51:37.586Z,68.49
2022-08-22T23:54:04.878Z,68.40
2022-08-22T23:56:33.958Z,68.82
2022-08-22T23:59:01.444Z,68.88
